Weather at Beijing Shahezhen Air Base

Public forecast

Using degrees Celsius for public forecast. Weather courtesy of forecast.io.

Closest aviation weather report (METAR) to Beijing Shahezhen Air Base

Closest report is Beijing Capital International Airport, 12.8 nm (23.7 km) ESE. Retrieved 2021/07/28 17:30 UTC (18 minutes ago):

ZBAA 281730Z VRB01MPS 9999 -RA NSC 25/24 Q1003 NOSIG

Closest aviation forecast (TAF) to Beijing Shahezhen Air Base

Forecast is more than 12 hours old.

Closest forecast is Beijing Capital International Airport, 12.8 nm (23.7 km) ESE. Retrieved 2021/07/20 18:02 UTC (8 days ago):

TAF ZBAA 201501Z 2018/2118 14004MPS 3500 BR NSC TX30/2107Z TN23/2021Z TEMPO 2104/2108 -TSRA FEW040CB